Terminal Aerodrome Forecast
Issued by NWS

Home | Current Version | Previous Version | Graphics & Text | Print | Product List | Glossary Off
Versions: 1 2 3 4 5 6 7 8 9 10 11 12 13 14 15

000
FTUS43 KIWX 211120
TAFSBN
TAF
KSBN 211120Z 2112/2212 23015G25KT P6SM BKN200
     FM211800 27014G23KT P6SM -SHRA BKN060 OVC150
     FM212100 30014G22KT P6SM OVC050
     FM220000 31009KT P6SM BKN035=

USA.gov is the U.S. government's official web portal to all federal, state and local government web resources and services.